Time;durP1;ratioP1;P1;durP2;ratioP2;P2;SDS_P1;SDS_P2;PMS_P1;PMS_P2;Temp;Humidity;BMP_temperature;BMP_pressure;BME280_temperature;BME280_humidity;BME280_pressure;Samples;Min_cycle;Max_cycle;Signal;HPM_P1;HPM_P2
2023/11/16 00:00:19;;;;;;;6.03;1.60;;;;;;;;;;5055523;28;20045;-77
2023/11/16 00:02:45;;;;;;;2.20;1.30;;;;;;;;;;5039949;28;20033;-78
2023/11/16 00:05:13;;;;;;;2.30;1.55;;;;;;;;;;5057091;28;20041;-78
2023/11/16 00:07:46;;;;;;;5.32;1.38;;;;;;;;;;5055618;28;20041;-78
2023/11/16 00:10:16;;;;;;;5.75;1.40;;;;;;;;;;5057101;28;20044;-79
2023/11/16 00:12:44;;;;;;;1.90;1.35;;;;;;;;;;5039734;28;20044;-79
2023/11/16 00:15:13;;;;;;;3.50;1.33;;;;;;;;;;5054578;28;20043;-77
2023/11/16 00:17:44;;;;;;;2.05;1.20;;;;;;;;;;5036304;28;20048;-79
2023/11/16 00:20:15;;;;;;;6.68;1.35;;;;;;;;;;5054419;28;20064;-79
2023/11/16 00:22:42;;;;;;;5.03;1.33;;;;;;;;;;5035021;28;20040;-76
2023/11/16 00:25:12;;;;;;;4.88;1.30;;;;;;;;;;5053730;28;20033;-76
2023/11/16 00:27:39;;;;;;;5.32;1.58;;;;;;;;;;5038404;28;20051;-78
2023/11/16 00:30:08;;;;;;;5.72;1.95;;;;;;;;;;5053490;28;20037;-80
2023/11/16 00:32:40;;;;;;;4.32;1.17;;;;;;;;;;5054092;28;20041;-79
2023/11/16 00:35:07;;;;;;;4.03;1.23;;;;;;;;;;5037984;28;20036;-79
2023/11/16 00:37:36;;;;;;;7.97;1.60;;;;;;;;;;5053913;28;20033;-79
2023/11/16 00:40:10;;;;;;;3.40;1.40;;;;;;;;;;5037944;28;20048;-78
2023/11/16 00:42:37;;;;;;;8.60;1.45;;;;;;;;;;5037767;28;20036;-79
2023/11/16 00:45:06;;;;;;;3.50;1.15;;;;;;;;;;5053950;28;20049;-77
2023/11/16 00:47:32;;;;;;;6.82;1.70;;;;;;;;;;5053126;28;20029;-76
2023/11/16 00:50:03;;;;;;;4.82;1.58;;;;;;;;;;5052232;28;20499;-76
2023/11/16 00:52:31;;;;;;;4.30;1.37;;;;;;;;;;5053458;28;20415;-79
2023/11/16 00:55:00;;;;;;;2.90;1.20;;;;;;;;;;5055398;28;20039;-79
2023/11/16 00:57:30;;;;;;;3.00;1.27;;;;;;;;;;5036144;28;20578;-79
2023/11/16 00:59:57;;;;;;;1.75;1.15;;;;;;;;;;5036796;28;20041;-79
2023/11/16 01:02:30;;;;;;;5.00;1.45;;;;;;;;;;5053567;28;20029;-79
2023/11/16 01:04:59;;;;;;;4.30;1.40;;;;;;;;;;5054276;28;20047;-80
2023/11/16 01:07:25;;;;;;;7.65;1.70;;;;;;;;;;5037217;28;20036;-76
2023/11/16 01:09:51;;;;;;;4.28;1.35;;;;;;;;;;5053322;28;20040;-78
2023/11/16 01:12:19;;;;;;;4.35;1.60;;;;;;;;;;5054730;28;20029;-77
2023/11/16 01:14:45;;;;;;;2.90;1.20;;;;;;;;;;5053243;28;20037;-77
2023/11/16 01:17:22;;;;;;;7.60;1.70;;;;;;;;;;5036833;28;20037;-78
2023/11/16 01:19:53;;;;;;;3.95;1.33;;;;;;;;;;5037288;28;20043;-78
2023/11/16 01:22:21;;;;;;;6.32;1.38;;;;;;;;;;5052736;28;20032;-78
2023/11/16 01:24:47;;;;;;;4.20;1.58;;;;;;;;;;5053847;28;20033;-79
2023/11/16 01:27:18;;;;;;;4.95;1.23;;;;;;;;;;5036313;28;20041;-78
2023/11/16 01:29:46;;;;;;;6.93;1.70;;;;;;;;;;5019764;28;20037;-77
2023/11/16 01:32:13;;;;;;;3.63;1.20;;;;;;;;;;5036211;28;20033;-77
2023/11/16 01:34:41;;;;;;;5.82;1.73;;;;;;;;;;5053128;28;20033;-77
2023/11/16 01:37:13;;;;;;;6.78;1.50;;;;;;;;;;5032139;28;20040;-77
2023/11/16 01:39:39;;;;;;;3.33;1.55;;;;;;;;;;5036309;28;20044;-76
2023/11/16 01:42:09;;;;;;;5.07;1.30;;;;;;;;;;5036082;28;20503;-78
2023/11/16 01:44:38;;;;;;;6.50;1.30;;;;;;;;;;5036114;28;20048;-77
2023/11/16 01:47:08;;;;;;;3.83;1.55;;;;;;;;;;5051838;28;20036;-77
2023/11/16 01:49:37;;;;;;;3.53;1.20;;;;;;;;;;5050014;28;20045;-78
2023/11/16 01:52:05;;;;;;;3.38;1.42;;;;;;;;;;5052129;28;20788;-77
2023/11/16 01:54:36;;;;;;;6.35;1.50;;;;;;;;;;5065144;28;20025;-76
2023/11/16 01:57:03;;;;;;;4.13;1.52;;;;;;;;;;5025062;28;20052;-79
2023/11/16 01:59:33;;;;;;;5.05;1.42;;;;;;;;;;5020882;28;20393;-78
2023/11/16 02:02:09;;;;;;;3.47;1.30;;;;;;;;;;5037847;28;20060;-78
2023/11/16 02:04:37;;;;;;;5.03;1.50;;;;;;;;;;5040108;28;20033;-79
2023/11/16 02:07:08;;;;;;;6.57;1.40;;;;;;;;;;5054458;28;20052;-78
2023/11/16 02:09:37;;;;;;;7.20;1.63;;;;;;;;;;5057668;28;20052;-78
2023/11/16 02:12:09;;;;;;;3.10;1.55;;;;;;;;;;5056395;28;20041;-77
2023/11/16 02:14:38;;;;;;;3.20;1.48;;;;;;;;;;5024082;28;20406;-77
2023/11/16 02:17:04;;;;;;;4.53;1.40;;;;;;;;;;5037094;28;20495;-78
2023/11/16 02:19:33;;;;;;;5.72;1.15;;;;;;;;;;5034967;28;20044;-77
2023/11/16 02:22:02;;;;;;;2.25;1.35;;;;;;;;;;5051027;28;20033;-77
2023/11/16 02:24:29;;;;;;;5.40;1.58;;;;;;;;;;5051677;28;20040;-77
2023/11/16 02:27:00;;;;;;;3.33;2.05;;;;;;;;;;5033378;28;20402;-77
2023/11/16 02:29:27;;;;;;;5.72;1.60;;;;;;;;;;5052828;28;20041;-78
2023/11/16 02:31:56;;;;;;;7.82;1.73;;;;;;;;;;5053935;28;20125;-78
2023/11/16 02:34:27;;;;;;;3.35;1.60;;;;;;;;;;5057205;28;20402;-78
2023/11/16 02:36:56;;;;;;;3.85;1.27;;;;;;;;;;5053652;28;20041;-77
2023/11/16 02:39:23;;;;;;;8.30;1.48;;;;;;;;;;5056463;28;20087;-77
2023/11/16 02:41:49;;;;;;;4.43;1.30;;;;;;;;;;5055279;28;20029;-78
2023/11/16 02:44:18;;;;;;;5.95;1.83;;;;;;;;;;5038683;28;20044;-78
2023/11/16 02:46:48;;;;;;;6.13;1.70;;;;;;;;;;5037436;28;20487;-77
2023/11/16 02:49:14;;;;;;;7.07;1.45;;;;;;;;;;5039419;28;20041;-80
2023/11/16 02:51:43;;;;;;;5.25;1.50;;;;;;;;;;5054353;28;20033;-78
2023/11/16 02:54:11;;;;;;;4.82;1.52;;;;;;;;;;5049009;28;20048;-80
2023/11/16 02:56:38;;;;;;;3.78;1.55;;;;;;;;;;5054275;28;20362;-78
2023/11/16 02:59:04;;;;;;;3.92;1.30;;;;;;;;;;5038304;28;20044;-78
2023/11/16 03:01:34;;;;;;;5.10;2.00;;;;;;;;;;5054347;28;20048;-78
2023/11/16 03:04:00;;;;;;;3.13;1.45;;;;;;;;;;5038423;28;20036;-78
2023/11/16 03:06:26;;;;;;;3.35;1.83;;;;;;;;;;5054842;28;20094;-77
2023/11/16 03:08:55;;;;;;;5.18;1.40;;;;;;;;;;5038632;28;20029;-79
2023/11/16 03:11:23;;;;;;;3.33;1.30;;;;;;;;;;5053961;28;20499;-78
2023/11/16 03:13:50;;;;;;;3.53;1.65;;;;;;;;;;5053833;28;20040;-78
2023/11/16 03:16:17;;;;;;;7.55;2.65;;;;;;;;;;5037692;28;20033;-79
2023/11/16 03:18:43;;;;;;;3.17;1.63;;;;;;;;;;5054654;28;20048;-79
2023/11/16 03:21:12;;;;;;;3.35;1.40;;;;;;;;;;5038169;28;20040;-78
2023/11/16 03:23:38;;;;;;;2.15;1.42;;;;;;;;;;5053781;28;20419;-77
2023/11/16 03:26:05;;;;;;;5.68;1.60;;;;;;;;;;5052486;28;20052;-78
2023/11/16 03:28:32;;;;;;;4.57;1.38;;;;;;;;;;5055672;28;20048;-79
2023/11/16 03:30:58;;;;;;;4.07;1.25;;;;;;;;;;5036369;28;20052;-78
2023/11/16 03:33:24;;;;;;;2.78;1.15;;;;;;;;;;5053452;28;20040;-76
2023/11/16 03:35:50;;;;;;;3.30;1.48;;;;;;;;;;5052804;28;20033;-79
2023/11/16 03:38:18;;;;;;;5.25;1.20;;;;;;;;;;5035944;28;20033;-78
2023/11/16 03:40:45;;;;;;;3.15;1.17;;;;;;;;;;5051197;28;20048;-79
2023/11/16 03:43:14;;;;;;;5.15;1.42;;;;;;;;;;5052537;28;20032;-77
2023/11/16 03:45:40;;;;;;;7.88;1.67;;;;;;;;;;5034681;28;20378;-77
2023/11/16 03:48:06;;;;;;;5.07;1.38;;;;;;;;;;5051138;28;20041;-77
2023/11/16 03:50:32;;;;;;;6.57;1.50;;;;;;;;;;5049863;28;20517;-78
2023/11/16 03:52:59;;;;;;;4.70;1.10;;;;;;;;;;5032694;28;20037;-77
2023/11/16 03:55:27;;;;;;;6.97;1.48;;;;;;;;;;5032560;28;20036;-78
2023/11/16 03:57:53;;;;;;;2.85;1.30;;;;;;;;;;5052520;28;20036;-79
2023/11/16 04:00:20;;;;;;;5.75;1.40;;;;;;;;;;5036392;28;20037;-78
2023/11/16 04:02:48;;;;;;;3.17;1.20;;;;;;;;;;5019396;28;20041;-78
2023/11/16 04:05:16;;;;;;;4.68;1.50;;;;;;;;;;5053715;28;20029;-78
2023/11/16 04:07:42;;;;;;;4.10;1.27;;;;;;;;;;5035992;28;20037;-78
2023/11/16 04:10:10;;;;;;;4.93;1.23;;;;;;;;;;5051898;28;20388;-78
2023/11/16 04:12:40;;;;;;;5.22;1.20;;;;;;;;;;5035049;28;20037;-78
2023/11/16 04:15:09;;;;;;;6.30;1.63;;;;;;;;;;5065061;28;20033;-79
2023/11/16 04:17:36;;;;;;;4.37;1.33;;;;;;;;;;5035804;28;20056;-79
2023/11/16 04:20:07;;;;;;;5.65;1.20;;;;;;;;;;5053261;28;20044;-77
2023/11/16 04:22:40;;;;;;;4.72;1.50;;;;;;;;;;5053177;28;20039;-80
2023/11/16 04:25:25;;;;;;;3.03;1.27;;;;;;;;;;5037449;28;20059;-79
2023/11/16 04:27:58;;;;;;;4.97;1.30;;;;;;;;;;5055066;28;20036;-78
2023/11/16 04:30:30;;;;;;;5.80;1.40;;;;;;;;;;5017836;28;20033;-80
2023/11/16 04:32:59;;;;;;;4.15;1.85;;;;;;;;;;5052279;28;20042;-79
2023/11/16 04:35:26;;;;;;;8.43;2.00;;;;;;;;;;5053690;28;20041;-78
2023/11/16 04:37:55;;;;;;;4.60;1.50;;;;;;;;;;5054006;28;20040;-79
2023/11/16 04:40:27;;;;;;;4.45;1.27;;;;;;;;;;5054764;28;20052;-79
2023/11/16 04:42:53;;;;;;;;;;;;;;;;;;5054733;28;20033;-80
2023/11/16 04:45:19;;;;;;;3.70;1.20;;;;;;;;;;5055637;28;19919;-78
2023/11/16 04:47:48;;;;;;;5.63;1.52;;;;;;;;;;5055203;28;20044;-79
2023/11/16 04:50:17;;;;;;;9.02;2.80;;;;;;;;;;5054626;28;20530;-80
2023/11/16 04:52:46;;;;;;;6.82;1.90;;;;;;;;;;5038107;28;20043;-78
2023/11/16 04:55:15;;;;;;;10.07;2.35;;;;;;;;;;5055947;28;20036;-78
2023/11/16 04:57:41;;;;;;;5.20;1.67;;;;;;;;;;5020962;28;20033;-79
2023/11/16 05:00:13;;;;;;;5.07;1.83;;;;;;;;;;5030091;28;20040;-78
2023/11/16 05:02:44;;;;;;;6.18;2.92;;;;;;;;;;5052177;28;20100;-78
2023/11/16 05:05:16;;;;;;;5.53;2.10;;;;;;;;;;5053105;28;20028;-78
2023/11/16 05:07:42;;;;;;;7.95;1.65;;;;;;;;;;5054021;28;20040;-76
2023/11/16 05:10:11;;;;;;;5.28;1.83;;;;;;;;;;5048317;28;20033;-79
2023/11/16 05:12:39;;;;;;;2.67;2.00;;;;;;;;;;5055418;28;20036;-79
2023/11/16 05:15:10;;;;;;;5.45;2.10;;;;;;;;;;5053773;28;20498;-79
2023/11/16 05:17:38;;;;;;;6.28;1.98;;;;;;;;;;5036709;28;20032;-79
2023/11/16 05:20:05;;;;;;;2.45;1.60;;;;;;;;;;5036720;28;20033;-80
2023/11/16 05:22:33;;;;;;;4.25;1.50;;;;;;;;;;5019968;28;20029;-80
2023/11/16 05:25:06;;;;;;;5.95;1.40;;;;;;;;;;5054871;28;20033;-79
2023/11/16 05:27:32;;;;;;;5.55;1.75;;;;;;;;;;5054238;28;20510;-79
2023/11/16 05:29:58;;;;;;;4.78;1.30;;;;;;;;;;5039312;28;20033;-78
2023/11/16 05:32:24;;;;;;;4.63;1.83;;;;;;;;;;5056503;28;20048;-79
2023/11/16 05:34:51;;;;;;;4.55;1.77;;;;;;;;;;5039345;28;20450;-79
2023/11/16 05:37:19;;;;;;;6.45;2.58;;;;;;;;;;5057117;28;20036;-78
2023/11/16 05:39:47;;;;;;;7.35;2.90;;;;;;;;;;5056762;28;20033;-79
2023/11/16 05:42:21;;;;;;;5.40;2.20;;;;;;;;;;5055442;28;20044;-79
2023/11/16 05:44:48;;;;;;;3.78;1.48;;;;;;;;;;5056364;28;20418;-78
2023/11/16 05:47:16;;;;;;;3.88;1.45;;;;;;;;;;5055944;28;20052;-79
2023/11/16 05:49:42;;;;;;;5.93;1.50;;;;;;;;;;5055781;28;20399;-78
2023/11/16 05:52:09;;;;;;;8.20;2.38;;;;;;;;;;5055393;28;20068;-78
2023/11/16 05:54:37;;;;;;;5.38;1.35;;;;;;;;;;5056809;28;20037;-78
2023/11/16 05:57:06;;;;;;;6.18;1.90;;;;;;;;;;5056347;28;20037;-78
2023/11/16 05:59:33;;;;;;;3.95;1.50;;;;;;;;;;5055808;28;20029;-78
2023/11/16 06:01:59;;;;;;;8.30;1.48;;;;;;;;;;5054343;28;20029;-78
2023/11/16 06:04:28;;;;;;;4.45;1.52;;;;;;;;;;5054114;28;20048;-77
2023/11/16 06:06:54;;;;;;;5.18;1.67;;;;;;;;;;5053718;28;20387;-78
2023/11/16 06:09:21;;;;;;;5.30;1.70;;;;;;;;;;5058057;28;20115;-77
2023/11/16 06:11:47;;;;;;;4.05;1.75;;;;;;;;;;5056586;28;20047;-78
2023/11/16 06:14:16;;;;;;;7.65;1.80;;;;;;;;;;5038152;28;20048;-79
2023/11/16 06:16:44;;;;;;;5.85;2.40;;;;;;;;;;5055520;28;20044;-78
2023/11/16 06:19:14;;;;;;;7.93;2.17;;;;;;;;;;5053570;28;20029;-79
2023/11/16 06:21:41;;;;;;;9.82;2.15;;;;;;;;;;5056910;28;20029;-78
2023/11/16 06:24:09;;;;;;;3.47;1.67;;;;;;;;;;5052794;28;20037;-78
2023/11/16 06:26:36;;;;;;;3.70;1.73;;;;;;;;;;5055475;28;20041;-78
2023/11/16 06:29:06;;;;;;;3.95;1.90;;;;;;;;;;5056568;28;20037;-78
2023/11/16 06:31:32;;;;;;;8.32;1.75;;;;;;;;;;5057812;28;20041;-77
2023/11/16 06:33:59;;;;;;;3.13;1.65;;;;;;;;;;5057299;28;20025;-77
2023/11/16 06:36:30;;;;;;;6.72;1.42;;;;;;;;;;5048226;28;20044;-78
2023/11/16 06:39:01;;;;;;;5.20;1.65;;;;;;;;;;5053206;28;20037;-79
2023/11/16 06:41:28;;;;;;;5.18;1.70;;;;;;;;;;5037065;28;20040;-78
2023/11/16 06:43:55;;;;;;;6.55;1.67;;;;;;;;;;5054110;28;20044;-77
2023/11/16 06:46:27;;;;;;;6.60;1.80;;;;;;;;;;5041580;28;20422;-79
2023/11/16 06:48:53;;;;;;;6.13;2.20;;;;;;;;;;5056126;28;20040;-79
2023/11/16 06:51:22;;;;;;;6.85;2.17;;;;;;;;;;5056814;28;20069;-79
2023/11/16 06:53:48;;;;;;;8.68;3.30;;;;;;;;;;5054798;28;20051;-78
2023/11/16 06:56:17;;;;;;;7.93;2.50;;;;;;;;;;5054508;28;20033;-77
2023/11/16 06:58:43;;;;;;;16.17;3.50;;;;;;;;;;5056004;28;20039;-78
2023/11/16 07:01:10;;;;;;;3.22;1.50;;;;;;;;;;5072910;28;20028;-80
2023/11/16 07:03:36;;;;;;;4.95;2.08;;;;;;;;;;5055673;28;20029;-76
2023/11/16 07:06:03;;;;;;;5.13;2.15;;;;;;;;;;5054834;28;20043;-78
2023/11/16 07:08:31;;;;;;;3.17;1.63;;;;;;;;;;5039440;28;20052;-79
2023/11/16 07:11:02;;;;;;;7.93;1.60;;;;;;;;;;5038636;28;20407;-80
2023/11/16 07:13:31;;;;;;;2.72;1.80;;;;;;;;;;5055748;28;20037;-80
2023/11/16 07:15:58;;;;;;;7.03;2.28;;;;;;;;;;5036095;28;20045;-77
2023/11/16 07:18:24;;;;;;;4.43;1.88;;;;;;;;;;5037765;28;20041;-77
2023/11/16 07:20:51;;;;;;;3.97;1.65;;;;;;;;;;5042567;28;20045;-78
2023/11/16 07:23:17;;;;;;;6.40;2.25;;;;;;;;;;5054598;28;20029;-79
2023/11/16 07:25:44;;;;;;;6.18;2.70;;;;;;;;;;5037204;28;20033;-77
2023/11/16 07:28:11;;;;;;;8.43;2.85;;;;;;;;;;5069786;28;20033;-80
2023/11/16 07:30:38;;;;;;;7.75;3.25;;;;;;;;;;5055617;28;20037;-78
2023/11/16 07:33:04;;;;;;;5.72;1.90;;;;;;;;;;5053704;28;20060;-79
2023/11/16 07:35:38;;;;;;;4.72;1.40;;;;;;;;;;5053368;28;20033;-79
2023/11/16 07:38:09;;;;;;;4.80;2.80;;;;;;;;;;5053835;28;20044;-79
2023/11/16 07:40:37;;;;;;;6.10;2.80;;;;;;;;;;5052165;28;20044;-77
2023/11/16 07:43:08;;;;;;;4.80;1.92;;;;;;;;;;5040133;28;20048;-80
2023/11/16 07:45:34;;;;;;;6.28;1.83;;;;;;;;;;5050883;28;20108;-78
2023/11/16 07:48:03;;;;;;;2.83;1.65;;;;;;;;;;5056474;28;20055;-78
2023/11/16 07:50:32;;;;;;;6.80;1.92;;;;;;;;;;5054967;28;20037;-79
2023/11/16 07:53:01;;;;;;;4.45;1.50;;;;;;;;;;5039249;28;20495;-78
2023/11/16 07:55:28;;;;;;;7.40;1.67;;;;;;;;;;5056751;28;20044;-77
2023/11/16 07:57:55;;;;;;;4.47;1.35;;;;;;;;;;5055709;28;20035;-77
2023/11/16 08:00:26;;;;;;;2.58;1.40;;;;;;;;;;5055725;28;20051;-79
2023/11/16 08:05:41;;;;;;;5.35;2.45;;;;;;;;;;5055630;28;20029;-77
2023/11/16 08:08:18;;;;;;;10.63;3.80;;;;;;;;;;5046730;28;20035;-78
2023/11/16 08:10:45;;;;;;;10.18;3.97;;;;;;;;;;5036549;28;20036;-77
2023/11/16 08:13:15;;;;;;;8.65;3.15;;;;;;;;;;5047777;28;20368;-78
2023/11/16 08:15:41;;;;;;;9.05;4.10;;;;;;;;;;5052757;28;20423;-78
2023/11/16 08:18:08;;;;;;;6.78;3.67;;;;;;;;;;5052878;28;20505;-79
2023/11/16 08:20:35;;;;;;;6.45;3.50;;;;;;;;;;5052684;28;20056;-77
2023/11/16 08:23:05;;;;;;;5.07;2.90;;;;;;;;;;5053662;28;20032;-79
2023/11/16 08:25:32;;;;;;;7.80;3.95;;;;;;;;;;5034042;28;20487;-80
2023/11/16 08:28:00;;;;;;;10.52;4.93;;;;;;;;;;5051142;28;20509;-79
2023/11/16 08:30:29;;;;;;;7.63;3.17;;;;;;;;;;5051590;28;20542;-80
2023/11/16 08:32:55;;;;;;;5.43;2.15;;;;;;;;;;5048770;28;20033;-78
2023/11/16 08:35:24;;;;;;;2.83;1.48;;;;;;;;;;5048190;28;20044;-79
2023/11/16 08:37:53;;;;;;;4.63;1.45;;;;;;;;;;5047291;28;20510;-79
2023/11/16 08:40:20;;;;;;;4.30;1.70;;;;;;;;;;5048971;28;20041;-78
2023/11/16 08:42:50;;;;;;;5.07;1.58;;;;;;;;;;5049482;28;20037;-77
2023/11/16 08:45:24;;;;;;;3.40;1.33;;;;;;;;;;5049881;28;20102;-79
2023/11/16 08:47:59;;;;;;;5.07;1.73;;;;;;;;;;5050090;28;20040;-78
2023/11/16 08:50:27;;;;;;;2.78;1.58;;;;;;;;;;5051587;28;20033;-79
2023/11/16 08:52:57;;;;;;;3.42;1.30;;;;;;;;;;5049242;28;20044;-78
2023/11/16 08:55:23;;;;;;;11.10;4.43;;;;;;;;;;5048712;28;20032;-78
2023/11/16 08:57:56;;;;;;;4.75;2.00;;;;;;;;;;5032907;28;20393;-77
2023/11/16 09:00:27;;;;;;;4.80;1.67;;;;;;;;;;5045736;28;20041;-78
2023/11/16 09:02:57;;;;;;;3.72;1.73;;;;;;;;;;5050296;28;20382;-77
2023/11/16 09:05:24;;;;;;;8.35;3.00;;;;;;;;;;5051733;28;20032;-77
2023/11/16 09:07:56;;;;;;;7.50;2.75;;;;;;;;;;5050589;28;20510;-76
2023/11/16 09:10:24;;;;;;;4.75;2.30;;;;;;;;;;5051126;28;20028;-77
2023/11/16 09:12:55;;;;;;;10.93;3.03;;;;;;;;;;5050143;28;20044;-79
2023/11/16 09:15:22;;;;;;;5.15;2.10;;;;;;;;;;5050855;28;20043;-77
2023/11/16 09:17:49;;;;;;;7.65;2.60;;;;;;;;;;5051606;28;20040;-79
2023/11/16 09:20:18;;;;;;;4.05;2.17;;;;;;;;;;5052071;28;20048;-78
2023/11/16 09:22:48;;;;;;;3.78;1.48;;;;;;;;;;5052372;28;20499;-78
2023/11/16 09:25:20;;;;;;;;;;;;;;;;;;5051445;28;20041;-78
2023/11/16 09:27:50;;;;;;;4.88;1.55;;;;;;;;;;5049171;28;20418;-77
2023/11/16 09:30:24;;;;;;;7.15;1.77;;;;;;;;;;5033313;28;20048;-78
2023/11/16 09:32:51;;;;;;;8.10;1.48;;;;;;;;;;5015825;28;20037;-79
2023/11/16 09:35:23;;;;;;;3.15;1.45;;;;;;;;;;5033458;28;20033;-79
2023/11/16 09:37:54;;;;;;;4.95;1.67;;;;;;;;;;5031619;28;20044;-79
2023/11/16 09:40:24;;;;;;;6.10;1.50;;;;;;;;;;5032697;28;20041;-79
2023/11/16 09:43:00;;;;;;;5.05;1.85;;;;;;;;;;5050586;28;20032;-79
2023/11/16 09:45:27;;;;;;;9.18;2.17;;;;;;;;;;5049205;28;20025;-77
2023/11/16 09:48:12;;;;;;;7.25;2.05;;;;;;;;;;5052511;28;20036;-76
2023/11/16 09:50:44;;;;;;;6.82;1.80;;;;;;;;;;5047303;28;20037;-79
2023/11/16 09:53:16;;;;;;;7.78;2.40;;;;;;;;;;5051769;28;20040;-77
2023/11/16 09:55:55;;;;;;;6.55;2.13;;;;;;;;;;5035502;28;20029;-78
2023/11/16 09:58:28;;;;;;;4.82;2.25;;;;;;;;;;5046915;28;20418;-77
2023/11/16 10:00:56;;;;;;;10.27;4.10;;;;;;;;;;5049895;28;20044;-78
2023/11/16 10:03:26;;;;;;;8.18;2.42;;;;;;;;;;5049797;28;20395;-78
2023/11/16 10:05:55;;;;;;;8.85;2.97;;;;;;;;;;5050681;28;20040;-79
2023/11/16 10:08:28;;;;;;;6.53;2.35;;;;;;;;;;5053257;28;20029;-79
2023/11/16 10:10:56;;;;;;;4.40;1.85;;;;;;;;;;5034291;28;20040;-80
2023/11/16 10:13:27;;;;;;;3.25;1.77;;;;;;;;;;5051699;28;20041;-78
2023/11/16 10:16:03;;;;;;;3.65;1.77;;;;;;;;;;5070003;28;20047;-79
2023/11/16 10:18:36;;;;;;;4.32;1.77;;;;;;;;;;5054190;28;20029;-80
2023/11/16 10:21:05;;;;;;;7.03;2.50;;;;;;;;;;5053058;28;20044;-77
2023/11/16 10:23:34;;;;;;;6.65;2.55;;;;;;;;;;5038554;28;20033;-77
2023/11/16 10:26:05;;;;;;;12.20;1.92;;;;;;;;;;5054000;28;20036;-78
2023/11/16 10:28:34;;;;;;;7.43;2.40;;;;;;;;;;5055434;28;20040;-79
2023/11/16 10:31:05;;;;;;;2.95;1.55;;;;;;;;;;5053012;28;20353;-78
2023/11/16 10:33:34;;;;;;;6.80;1.67;;;;;;;;;;5055167;28;20164;-77
2023/11/16 10:36:00;;;;;;;5.28;1.60;;;;;;;;;;5053443;28;20059;-79
2023/11/16 10:38:32;;;;;;;4.65;1.65;;;;;;;;;;5055760;28;20029;-77
2023/11/16 10:40:58;;;;;;;3.40;1.70;;;;;;;;;;5054004;28;20039;-79
2023/11/16 10:50:24;;;;;;;4.68;1.77;;;;;;;;;;1481785;26;20485;-78
2023/11/16 10:52:52;;;;;;;3.97;1.63;;;;;;;;;;5046576;28;20051;-78
2023/11/16 10:55:24;;;;;;;7.93;2.33;;;;;;;;;;5054540;28;20406;-77
2023/11/16 10:58:04;;;;;;;6.40;1.90;;;;;;;;;;5039082;28;20397;-77
2023/11/16 11:00:34;;;;;;;7.18;1.90;;;;;;;;;;5031679;28;20079;-76
2023/11/16 11:03:03;;;;;;;9.55;1.95;;;;;;;;;;5037068;28;20438;-79
2023/11/16 11:05:32;;;;;;;4.00;1.50;;;;;;;;;;5037268;28;20037;-78
2023/11/16 11:08:00;;;;;;;4.55;1.50;;;;;;;;;;5034906;28;20036;-79
2023/11/16 11:10:32;;;;;;;;;;;;;;;;;;5057131;28;20467;-76
2023/11/16 11:13:05;;;;;;;5.78;1.55;;;;;;;;;;5019094;28;19928;-77
2023/11/16 11:15:36;;;;;;;3.55;1.52;;;;;;;;;;5018895;28;20041;-78
2023/11/16 11:18:04;;;;;;;6.07;1.58;;;;;;;;;;5045134;28;20041;-78
2023/11/16 11:20:38;;;;;;;4.55;1.50;;;;;;;;;;5070564;28;20036;-77
2023/11/16 11:23:09;;;;;;;3.78;1.52;;;;;;;;;;5021667;28;20052;-78
2023/11/16 11:25:38;;;;;;;4.75;1.50;;;;;;;;;;5051304;28;20052;-78
2023/11/16 11:28:14;;;;;;;8.27;1.48;;;;;;;;;;5030614;28;20044;-79
2023/11/16 11:30:54;;;;;;;5.35;1.60;;;;;;;;;;5033319;28;20040;-79
2023/11/16 11:33:39;;;;;;;4.50;1.42;;;;;;;;;;5040965;28;20048;-76
2023/11/16 11:36:09;;;;;;;6.53;1.50;;;;;;;;;;5015215;28;20048;-78
2023/11/16 11:38:42;;;;;;;7.65;1.27;;;;;;;;;;5006171;28;20052;-78
2023/11/16 11:41:12;;;;;;;8.32;2.25;;;;;;;;;;5068061;28;20047;-79
2023/11/16 11:43:40;;;;;;;7.97;1.42;;;;;;;;;;5055537;28;20025;-79
2023/11/16 11:46:18;;;;;;;4.63;1.48;;;;;;;;;;5034599;28;20036;-78
2023/11/16 11:48:46;;;;;;;4.75;1.70;;;;;;;;;;5034285;28;20036;-78
2023/11/16 11:51:14;;;;;;;5.93;1.60;;;;;;;;;;5063992;28;20283;-77
2023/11/16 11:53:40;;;;;;;6.53;1.83;;;;;;;;;;5035187;28;20071;-77
2023/11/16 11:56:10;;;;;;;6.30;1.52;;;;;;;;;;5037539;28;20033;-77
2023/11/16 11:58:43;;;;;;;6.70;1.52;;;;;;;;;;5034220;28;20037;-77
2023/11/16 12:01:14;;;;;;;5.70;1.40;;;;;;;;;;5015835;28;20045;-78
2023/11/16 12:03:59;;;;;;;8.48;1.58;;;;;;;;;;5047221;28;20033;-77
2023/11/16 12:06:29;;;;;;;8.70;1.70;;;;;;;;;;5069947;28;20041;-77
2023/11/16 12:08:57;;;;;;;4.90;1.15;;;;;;;;;;5068270;28;20041;-78
2023/11/16 12:11:26;;;;;;;4.65;1.40;;;;;;;;;;5035287;28;20048;-78
2023/11/16 12:13:54;;;;;;;11.27;1.52;;;;;;;;;;5039060;28;20040;-77
2023/11/16 12:16:23;;;;;;;4.55;1.80;;;;;;;;;;5036149;28;20132;-78
2023/11/16 12:18:53;;;;;;;7.40;1.20;;;;;;;;;;5039906;28;20051;-79
2023/11/16 12:21:24;;;;;;;2.50;1.10;;;;;;;;;;5042451;28;20050;-78
2023/11/16 12:23:55;;;;;;;4.65;1.10;;;;;;;;;;5039571;28;20045;-77
2023/11/16 12:26:29;;;;;;;8.13;2.20;;;;;;;;;;5034830;28;20386;-78
2023/11/16 12:28:58;;;;;;;7.75;1.85;;;;;;;;;;5060113;28;20044;-77
2023/11/16 12:31:27;;;;;;;4.60;1.60;;;;;;;;;;5054001;28;20032;-78
2023/11/16 12:33:55;;;;;;;5.35;1.20;;;;;;;;;;5017238;28;20046;-79
2023/11/16 12:36:23;;;;;;;4.05;1.30;;;;;;;;;;5051986;28;20047;-78
2023/11/16 12:38:53;;;;;;;2.75;1.30;;;;;;;;;;5019740;28;20420;-78
2023/11/16 12:41:23;;;;;;;4.93;1.33;;;;;;;;;;5052451;28;20036;-77
2023/11/16 12:44:04;;;;;;;4.47;1.70;;;;;;;;;;5021369;28;20032;-78
2023/11/16 12:46:31;;;;;;;3.78;1.70;;;;;;;;;;5017870;28;20033;-78
2023/11/16 12:48:59;;;;;;;4.30;1.30;;;;;;;;;;5038055;28;20379;-77
2023/11/16 12:51:27;;;;;;;5.45;2.00;;;;;;;;;;5023346;28;20037;-79
2023/11/16 12:53:56;;;;;;;5.15;1.63;;;;;;;;;;5040243;28;20037;-77
2023/11/16 12:56:22;;;;;;;3.00;1.10;;;;;;;;;;5026523;28;20047;-78
2023/11/16 12:58:53;;;;;;;4.40;1.70;;;;;;;;;;5037589;28;20037;-78
2023/11/16 13:01:19;;;;;;;4.07;1.63;;;;;;;;;;5038993;28;20037;-79
2023/11/16 13:03:49;;;;;;;3.53;1.50;;;;;;;;;;5024522;28;20044;-77
2023/11/16 13:06:15;;;;;;;5.47;1.73;;;;;;;;;;5035088;28;20055;-78
2023/11/16 13:08:44;;;;;;;3.65;1.80;;;;;;;;;;5040267;28;20035;-77
2023/11/16 13:11:13;;;;;;;4.75;1.80;;;;;;;;;;5028946;28;20037;-78
2023/11/16 13:13:39;;;;;;;4.37;1.80;;;;;;;;;;5048125;28;20397;-79
2023/11/16 13:16:07;;;;;;;4.45;1.70;;;;;;;;;;5025490;28;20044;-80
2023/11/16 13:18:37;;;;;;;5.10;2.00;;;;;;;;;;5047680;28;20037;-80
2023/11/16 13:21:09;;;;;;;8.25;3.53;;;;;;;;;;5058682;28;20045;-80
2023/11/16 13:23:37;;;;;;;9.05;3.35;;;;;;;;;;5054134;28;20037;-79
2023/11/16 13:26:07;;;;;;;4.18;2.40;;;;;;;;;;5008690;28;20445;-77
2023/11/16 13:28:33;;;;;;;6.85;2.90;;;;;;;;;;5024373;28;20057;-79
2023/11/16 13:31:01;;;;;;;7.78;4.00;;;;;;;;;;5024370;28;20050;-80
2023/11/16 13:33:28;;;;;;;7.60;3.70;;;;;;;;;;5011542;28;20048;-81
2023/11/16 13:35:54;;;;;;;9.80;3.53;;;;;;;;;;5038502;28;20037;-80
2023/11/16 13:38:23;;;;;;;5.90;2.35;;;;;;;;;;5041730;28;20041;-79
2023/11/16 13:40:49;;;;;;;0.93;0.50;;;;;;;;;;5056351;28;20028;-79
2023/11/16 13:43:17;;;;;;;2.30;0.93;;;;;;;;;;5057235;28;20390;-80
2023/11/16 13:45:44;;;;;;;4.38;1.67;;;;;;;;;;5039082;28;20049;-79
2023/11/16 13:48:12;;;;;;;3.42;1.40;;;;;;;;;;5033494;28;20045;-81
2023/11/16 13:50:39;;;;;;;5.15;1.63;;;;;;;;;;5026119;28;20041;-80
2023/11/16 13:53:09;;;;;;;5.55;2.08;;;;;;;;;;5076602;28;20055;-79
2023/11/16 13:55:38;;;;;;;4.45;2.47;;;;;;;;;;5041550;28;20041;-81
2023/11/16 13:58:04;;;;;;;5.35;1.90;;;;;;;;;;5033416;28;20490;-80
2023/11/16 14:00:32;;;;;;;8.88;3.38;;;;;;;;;;5043232;28;20044;-79
2023/11/16 14:03:01;;;;;;;;;;;;;;;;;;5077420;28;20409;-78
2023/11/16 14:05:27;;;;;;;12.75;5.28;;;;;;;;;;5056903;28;19913;-80
2023/11/16 14:07:53;;;;;;;14.65;5.43;;;;;;;;;;5019291;28;20045;-79
2023/11/16 14:10:22;;;;;;;11.25;4.07;;;;;;;;;;5055365;28;20045;-80
2023/11/16 14:12:54;;;;;;;4.53;2.38;;;;;;;;;;5067515;28;20051;-78
2023/11/16 14:15:23;;;;;;;6.65;2.35;;;;;;;;;;5044150;28;20123;-78
2023/11/16 14:17:49;;;;;;;8.73;3.28;;;;;;;;;;5032637;28;20033;-78
2023/11/16 14:20:20;;;;;;;6.20;2.40;;;;;;;;;;5048132;28;20041;-76
2023/11/16 14:22:49;;;;;;;4.90;1.50;;;;;;;;;;5049146;28;20028;-79
2023/11/16 14:25:22;;;;;;;3.83;1.38;;;;;;;;;;5046027;28;20040;-80
2023/11/16 14:27:48;;;;;;;;;;;;;;;;;;5072573;28;20040;-79
2023/11/16 14:30:22;;;;;;;3.03;1.20;;;;;;;;;;5022063;28;20379;-78
2023/11/16 14:32:48;;;;;;;3.25;1.40;;;;;;;;;;5061063;28;20033;-78
2023/11/16 14:35:17;;;;;;;2.35;1.60;;;;;;;;;;5044485;28;20044;-78
2023/11/16 14:37:43;;;;;;;6.55;2.75;;;;;;;;;;5042962;28;20043;-79
2023/11/16 14:40:10;;;;;;;5.78;2.65;;;;;;;;;;5041362;28;20041;-78
2023/11/16 14:42:41;;;;;;;5.15;2.28;;;;;;;;;;5028486;28;20040;-79
2023/11/16 14:45:09;;;;;;;2.63;1.50;;;;;;;;;;5022602;28;20044;-80
2023/11/16 14:47:40;;;;;;;5.13;1.92;;;;;;;;;;5022358;28;20041;-79
2023/11/16 14:50:12;;;;;;;7.45;2.10;;;;;;;;;;5021465;28;20048;-79
2023/11/16 14:52:38;;;;;;;5.05;1.70;;;;;;;;;;5021866;28;20502;-77
2023/11/16 14:55:06;;;;;;;4.38;1.80;;;;;;;;;;5020767;28;20533;-79
2023/11/16 14:57:37;;;;;;;3.40;1.50;;;;;;;;;;5023025;28;20044;-79
2023/11/16 15:00:05;;;;;;;6.90;1.75;;;;;;;;;;5070537;28;20047;-80
2023/11/16 15:02:34;;;;;;;4.18;1.48;;;;;;;;;;5033971;28;20037;-79